Time;durP1;ratioP1;P1;durP2;ratioP2;P2;SDS_P1;SDS_P2;PMS_P1;PMS_P2;Temp;Humidity;BMP_temperature;BMP_pressure;BME280_temperature;BME280_humidity;BME280_pressure;Samples;Min_cycle;Max_cycle;Signal;HPM_P1;HPM_P2
2022/01/04 00:00:57;;;;;;;1.95;1.70;;;9.10;99.90;;;;;;5093432;28;20219;-83
2022/01/04 00:03:27;;;;;;;14.30;2.20;;;9.10;99.90;;;;;;5093690;28;20204;-83
2022/01/04 00:05:55;;;;;;;1.65;1.55;;;9.20;99.90;;;;;;5092915;28;20294;-83
2022/01/04 00:08:26;;;;;;;2.13;1.63;;;9.20;99.90;;;;;;5092895;28;20207;-83
2022/01/04 00:11:06;;;;;;;2.72;1.88;;;9.10;99.90;;;;;;5102432;28;20288;-83
2022/01/04 00:13:36;;;;;;;2.67;1.88;;;9.20;99.90;;;;;;5114663;28;20191;-83
2022/01/04 00:16:07;;;;;;;3.00;1.60;;;9.20;99.90;;;;;;5102207;27;20223;-83
2022/01/04 00:18:36;;;;;;;2.47;1.67;;;9.20;99.90;;;;;;5092856;28;20282;-83
2022/01/04 00:21:05;;;;;;;2.55;2.33;;;9.20;99.90;;;;;;5093878;28;20268;-83
2022/01/04 00:23:33;;;;;;;1.85;1.75;;;9.20;99.90;;;;;;5093980;28;20276;-83
2022/01/04 00:26:02;;;;;;;1.73;1.63;;;9.20;99.90;;;;;;5093202;28;20248;-83
2022/01/04 00:28:30;;;;;;;1.98;1.77;;;9.20;99.90;;;;;;5093976;28;20236;-83
2022/01/04 00:31:00;;;;;;;2.75;2.17;;;9.20;99.90;;;;;;5094852;28;20212;-83
2022/01/04 00:33:29;;;;;;;6.32;1.67;;;9.20;99.90;;;;;;5113169;27;20203;-83
2022/01/04 00:35:58;;;;;;;2.20;1.90;;;9.10;99.90;;;;;;5113615;28;20223;-83
2022/01/04 00:38:26;;;;;;;2.38;2.17;;;9.10;99.90;;;;;;5114233;27;20224;-83
2022/01/04 00:40:55;;;;;;;2.58;1.65;;;9.10;99.90;;;;;;5113910;27;20200;-82
2022/01/04 00:43:23;;;;;;;2.60;2.40;;;9.10;99.90;;;;;;5114276;27;20223;-86
2022/01/04 00:45:52;;;;;;;1.70;1.60;;;9.20;99.90;;;;;;5114335;28;20224;-85
2022/01/04 00:51:09;;;;;;;1.58;1.48;;;9.20;99.90;;;;;;5114100;28;20258;-84
2022/01/04 00:53:37;;;;;;;12.88;1.88;;;9.20;99.90;;;;;;5113257;27;20203;-84
2022/01/04 00:56:06;;;;;;;2.40;2.20;;;9.20;99.90;;;;;;5113882;28;20253;-84
2022/01/04 00:58:34;;;;;;;7.93;2.30;;;9.20;99.90;;;;;;5113683;28;20215;-84
2022/01/04 01:01:03;;;;;;;3.25;1.98;;;9.20;99.90;;;;;;5113811;28;20200;-84
2022/01/04 01:03:33;;;;;;;2.05;1.92;;;9.20;99.90;;;;;;5114045;27;20207;-84
2022/01/04 01:06:04;;;;;;;2.25;2.05;;;9.20;99.90;;;;;;5114202;27;20220;-84
2022/01/04 01:08:32;;;;;;;3.90;2.22;;;9.20;99.90;;;;;;5113736;28;20200;-84
2022/01/04 01:11:01;;;;;;;1.92;1.73;;;9.10;99.90;;;;;;5113671;27;20246;-84
2022/01/04 01:13:29;;;;;;;3.50;2.33;;;9.10;99.90;;;;;;5114433;28;20200;-84
2022/01/04 01:15:58;;;;;;;2.13;2.03;;;9.10;99.90;;;;;;5114065;28;20220;-84
2022/01/04 01:18:26;;;;;;;2.53;2.33;;;9.10;99.90;;;;;;5113882;27;20215;-84
2022/01/04 01:20:56;;;;;;;2.47;2.28;;;9.10;99.90;;;;;;5113501;28;20295;-84
2022/01/04 01:23:25;;;;;;;2.40;2.20;;;9.10;99.90;;;;;;5113937;27;20235;-84
2022/01/04 01:25:53;;;;;;;2.20;2.05;;;9.10;99.90;;;;;;5113851;28;20231;-84
2022/01/04 01:28:23;;;;;;;10.13;2.28;;;9.00;99.90;;;;;;5113592;28;20204;-84
2022/01/04 01:30:52;;;;;;;3.35;2.47;;;9.00;99.90;;;;;;5111772;28;20294;-84
2022/01/04 01:33:20;;;;;;;1.80;1.70;;;9.10;99.90;;;;;;5114223;27;20276;-84
2022/01/04 01:35:49;;;;;;;2.55;1.90;;;9.00;99.90;;;;;;5113427;27;20219;-84
2022/01/04 01:38:19;;;;;;;2.20;2.00;;;9.00;99.90;;;;;;5113092;28;20306;-84
2022/01/04 01:40:48;;;;;;;2.17;1.98;;;9.00;99.90;;;;;;5113301;27;20365;-84
2022/01/04 01:43:16;;;;;;;4.22;2.85;;;9.00;99.90;;;;;;5113609;27;20227;-84
2022/01/04 01:45:46;;;;;;;2.63;2.42;;;9.00;99.90;;;;;;5113643;28;20223;-84
2022/01/04 01:48:15;;;;;;;2.05;1.67;;;9.00;99.90;;;;;;5113502;28;20200;-84
2022/01/04 01:50:43;;;;;;;2.67;2.47;;;9.00;99.90;;;;;;5112726;28;20238;-84
2022/01/04 01:53:12;;;;;;;2.03;1.83;;;9.00;99.90;;;;;;5113517;28;20208;-84
2022/01/04 01:55:42;;;;;;;2.75;1.67;;;9.00;99.90;;;;;;5113467;27;20226;-84
2022/01/04 01:58:10;;;;;;;4.18;1.95;;;9.00;99.90;;;;;;5113424;27;20258;-86
2022/01/04 02:00:39;;;;;;;1.60;1.50;;;9.00;99.90;;;;;;5112750;27;20253;-84
2022/01/04 02:03:08;;;;;;;1.95;1.85;;;9.10;99.90;;;;;;5113121;27;20238;-84
2022/01/04 02:05:37;;;;;;;5.43;2.33;;;9.10;99.90;;;;;;5113077;27;20238;-87
2022/01/04 02:08:06;;;;;;;1.90;1.80;;;9.10;99.90;;;;;;5112954;28;20278;-87
2022/01/04 02:10:34;;;;;;;2.22;2.03;;;9.20;99.90;;;;;;5112553;28;20232;-87
2022/01/04 02:13:04;;;;;;;1.45;1.35;;;9.20;99.90;;;;;;5113282;27;20292;-87
2022/01/04 02:15:33;;;;;;;1.75;1.65;;;9.20;99.90;;;;;;5112855;28;20228;-87
2022/01/04 02:18:01;;;;;;;1.40;1.30;;;9.30;99.90;;;;;;5112789;28;20223;-87
2022/01/04 02:20:32;;;;;;;2.28;2.08;;;9.30;99.90;;;;;;5112336;28;20242;-87
2022/01/04 02:23:00;;;;;;;2.08;1.98;;;9.30;99.90;;;;;;5113329;28;20324;-87
2022/01/04 02:25:28;;;;;;;2.90;2.38;;;9.20;99.90;;;;;;5113096;28;20227;-87
2022/01/04 02:27:57;;;;;;;2.30;2.10;;;9.30;99.90;;;;;;5112966;28;20199;-86
2022/01/04 02:30:25;;;;;;;2.25;2.00;;;9.20;99.90;;;;;;5111678;28;20311;-86
2022/01/04 02:32:54;;;;;;;1.77;1.67;;;9.20;99.90;;;;;;5113148;28;20261;-86
2022/01/04 02:35:26;;;;;;;1.88;1.77;;;9.20;99.90;;;;;;5112673;28;20287;-87
2022/01/04 02:37:57;;;;;;;1.80;1.70;;;9.20;99.90;;;;;;5113000;28;20247;-87
2022/01/04 02:40:26;;;;;;;2.92;2.40;;;9.20;99.90;;;;;;5112872;27;20249;-87
2022/01/04 02:42:55;;;;;;;4.13;1.90;;;9.20;99.90;;;;;;5113124;28;20230;-87
2022/01/04 02:45:23;;;;;;;1.92;1.83;;;9.20;99.90;;;;;;5113320;28;20268;-87
2022/01/04 02:47:53;;;;;;;1.98;1.83;;;9.20;99.90;;;;;;5113236;28;20242;-87
2022/01/04 02:50:21;;;;;;;2.75;2.15;;;9.10;99.90;;;;;;5112592;27;20203;-87
2022/01/04 02:52:50;;;;;;;1.90;1.75;;;9.10;99.90;;;;;;5113007;28;20234;-86
2022/01/04 02:55:20;;;;;;;1.58;1.45;;;9.10;99.90;;;;;;5112743;27;20228;-86
2022/01/04 02:57:52;;;;;;;1.85;1.60;;;9.10;99.90;;;;;;5112921;28;20223;-87
2022/01/04 03:00:23;;;;;;;2.05;1.70;;;9.20;99.90;;;;;;5112334;28;20301;-88
2022/01/04 03:02:51;;;;;;;1.60;1.50;;;9.20;99.90;;;;;;5112877;27;20211;-88
2022/01/04 03:05:20;;;;;;;2.33;1.65;;;9.30;99.90;;;;;;5112627;28;20223;-88
2022/01/04 03:07:48;;;;;;;2.17;1.38;;;9.30;99.90;;;;;;5112928;28;20203;-88
2022/01/04 03:10:16;;;;;;;1.75;1.65;;;9.40;99.90;;;;;;5112421;27;20204;-86
2022/01/04 03:12:46;;;;;;;1.40;1.30;;;9.50;99.90;;;;;;5114761;28;20229;-86
2022/01/04 03:15:15;;;;;;;1.50;1.40;;;9.60;99.90;;;;;;5116566;28;20251;-87
2022/01/04 03:17:43;;;;;;;2.42;2.15;;;9.70;99.90;;;;;;5116401;28;20215;-87
2022/01/04 03:20:13;;;;;;;1.45;1.17;;;9.80;99.90;;;;;;5116181;28;20238;-86
2022/01/04 03:22:41;;;;;;;1.30;1.20;;;9.90;99.90;;;;;;5116728;28;20219;-86
2022/01/04 03:25:11;;;;;;;0.98;0.93;;;9.90;99.90;;;;;;5116258;28;20207;-87
2022/01/04 03:27:39;;;;;;;1.00;1.00;;;10.10;99.90;;;;;;5116353;27;20226;-87
2022/01/04 03:30:10;;;;;;;0.82;0.82;;;10.20;99.90;;;;;;5116051;27;20242;-87
2022/01/04 03:32:39;;;;;;;0.98;0.98;;;10.20;99.90;;;;;;5116165;28;20232;-87
2022/01/04 03:35:08;;;;;;;1.45;0.93;;;10.20;99.90;;;;;;5116153;28;20249;-87
2022/01/04 03:37:37;;;;;;;1.60;1.25;;;10.20;99.90;;;;;;5116029;28;20200;-87
2022/01/04 03:40:06;;;;;;;0.73;0.73;;;10.30;99.90;;;;;;5115189;27;20277;-86
2022/01/04 03:42:35;;;;;;;0.90;0.82;;;10.30;99.90;;;;;;5116076;27;20195;-88
2022/01/04 03:45:03;;;;;;;0.85;0.82;;;10.40;99.90;;;;;;5117549;28;20246;-87
2022/01/04 03:47:34;;;;;;;0.65;0.57;;;10.40;99.90;;;;;;5116008;28;20203;-86
2022/01/04 03:50:02;;;;;;;0.68;0.68;;;10.50;99.90;;;;;;5115468;28;20196;-86
2022/01/04 03:52:31;;;;;;;0.88;0.80;;;10.50;99.90;;;;;;5116017;28;20231;-88
2022/01/04 03:54:59;;;;;;;0.73;0.73;;;10.60;99.90;;;;;;5116055;28;20220;-87
2022/01/04 03:57:27;;;;;;;0.40;0.40;;;10.60;99.90;;;;;;5116497;28;20210;-87
2022/01/04 03:59:56;;;;;;;0.40;0.40;;;10.60;99.90;;;;;;5115030;28;20251;-86
2022/01/04 04:02:24;;;;;;;1.00;0.90;;;10.60;99.90;;;;;;5115885;27;20232;-86
2022/01/04 04:04:54;;;;;;;0.73;0.73;;;10.60;99.90;;;;;;5115698;28;20201;-87
2022/01/04 04:07:22;;;;;;;1.05;0.95;;;10.60;99.90;;;;;;5115375;28;20199;-87
2022/01/04 04:09:51;;;;;;;0.80;0.80;;;10.60;99.90;;;;;;5114913;28;20223;-86
2022/01/04 04:12:19;;;;;;;0.80;0.80;;;10.50;99.90;;;;;;5115691;28;20286;-86
2022/01/04 04:14:47;;;;;;;11.00;1.52;;;10.60;99.90;;;;;;5115323;28;20287;-86
2022/01/04 04:17:20;;;;;;;1.70;1.48;;;10.50;99.90;;;;;;5115268;27;20235;-86
2022/01/04 04:19:48;;;;;;;1.73;1.63;;;10.40;99.90;;;;;;5114508;28;20273;-87
2022/01/04 04:22:18;;;;;;;1.48;1.38;;;10.20;99.90;;;;;;5115092;28;20287;-87
2022/01/04 04:24:46;;;;;;;0.98;0.98;;;10.10;99.90;;;;;;5114882;28;20328;-87
2022/01/04 04:27:15;;;;;;;1.02;1.00;;;10.00;99.90;;;;;;5115040;28;20262;-87
2022/01/04 04:29:43;;;;;;;0.95;0.65;;;10.00;99.90;;;;;;5113618;28;20318;-87
2022/01/04 04:32:12;;;;;;;1.48;1.23;;;10.00;99.90;;;;;;5115140;28;20322;-86
2022/01/04 04:34:40;;;;;;;1.23;1.10;;;10.00;99.90;;;;;;5115088;28;20203;-86
2022/01/04 04:37:09;;;;;;;1.02;1.02;;;10.00;99.90;;;;;;5114909;28;20219;-86
2022/01/04 04:39:38;;;;;;;2.47;1.67;;;9.90;99.90;;;;;;5113851;28;20243;-84
2022/01/04 04:42:07;;;;;;;1.90;1.70;;;9.80;99.90;;;;;;5114789;27;20203;-84
2022/01/04 04:44:36;;;;;;;1.77;1.40;;;9.60;99.90;;;;;;5114987;28;20231;-84
2022/01/04 04:47:05;;;;;;;1.73;1.63;;;9.50;99.90;;;;;;5114805;28;20258;-84
2022/01/04 04:49:33;;;;;;;1.60;1.50;;;9.40;99.90;;;;;;5114311;28;20230;-84
2022/01/04 04:52:03;;;;;;;1.35;1.25;;;9.40;99.90;;;;;;5114491;28;20204;-84
2022/01/04 04:54:32;;;;;;;2.70;1.52;;;9.30;99.90;;;;;;5114985;28;20204;-84
2022/01/04 04:57:02;;;;;;;2.15;1.95;;;9.20;99.90;;;;;;5114401;28;20223;-84
2022/01/04 04:59:30;;;;;;;5.10;1.70;;;9.10;99.90;;;;;;5113989;28;20330;-84
2022/01/04 05:01:59;;;;;;;1.35;1.25;;;9.10;99.90;;;;;;5114536;27;20216;-86
2022/01/04 05:04:28;;;;;;;4.10;1.67;;;9.10;99.90;;;;;;5114325;27;20224;-85
2022/01/04 05:06:57;;;;;;;7.32;1.67;;;9.10;99.90;;;;;;5113918;28;20231;-85
2022/01/04 05:09:25;;;;;;;1.70;1.60;;;9.10;99.90;;;;;;5113660;27;20298;-85
2022/01/04 05:11:53;;;;;;;2.40;1.48;;;9.00;99.90;;;;;;5114021;27;20230;-86
2022/01/04 05:14:23;;;;;;;2.65;1.92;;;9.00;99.90;;;;;;5114817;28;20246;-86
2022/01/04 05:16:51;;;;;;;4.05;2.13;;;9.00;99.90;;;;;;5114057;28;20298;-86
2022/01/04 05:19:19;;;;;;;1.92;1.63;;;9.00;99.90;;;;;;5113535;28;20311;-85
2022/01/04 05:21:48;;;;;;;1.73;1.60;;;8.90;99.90;;;;;;5113880;27;20204;-85
2022/01/04 05:24:16;;;;;;;1.85;1.50;;;8.90;99.90;;;;;;5113998;28;20223;-85
2022/01/04 05:26:45;;;;;;;2.10;1.80;;;8.90;99.90;;;;;;5113870;28;20232;-85
2022/01/04 05:29:13;;;;;;;1.67;1.58;;;8.90;99.90;;;;;;5113409;28;20207;-84
2022/01/04 05:31:43;;;;;;;1.88;1.50;;;8.90;99.90;;;;;;5112885;28;20208;-84
2022/01/04 05:34:11;;;;;;;2.03;1.83;;;8.80;99.90;;;;;;5113369;28;20290;-84
2022/01/04 05:36:40;;;;;;;1.85;1.60;;;8.80;99.90;;;;;;5113399;28;20243;-84
2022/01/04 05:39:08;;;;;;;2.00;1.77;;;8.70;99.90;;;;;;5112992;28;20295;-83
2022/01/04 05:41:36;;;;;;;4.97;1.73;;;8.70;99.90;;;;;;5113211;28;20208;-84
2022/01/04 05:44:05;;;;;;;2.35;1.23;;;8.60;99.90;;;;;;5113451;28;20215;-84
2022/01/04 05:46:34;;;;;;;2.08;1.45;;;8.50;99.90;;;;;;5113515;27;20306;-84
2022/01/04 05:49:04;;;;;;;2.80;1.50;;;8.40;99.90;;;;;;5113071;28;20210;-84
2022/01/04 05:51:32;;;;;;;2.05;1.83;;;8.40;99.90;;;;;;5113907;28;20225;-84
2022/01/04 05:54:00;;;;;;;2.15;1.70;;;8.30;99.90;;;;;;5113391;28;20208;-84
2022/01/04 05:56:29;;;;;;;2.40;1.80;;;8.20;99.90;;;;;;5113337;28;20255;-84
2022/01/04 05:58:58;;;;;;;2.03;1.83;;;8.10;99.90;;;;;;5112813;27;20231;-84
2022/01/04 06:01:27;;;;;;;1.63;1.52;;;8.10;99.90;;;;;;5113243;28;20215;-84
2022/01/04 06:03:56;;;;;;;1.45;1.30;;;8.10;99.90;;;;;;5113403;27;20218;-84
2022/01/04 06:06:25;;;;;;;3.90;1.60;;;8.00;99.90;;;;;;5113119;28;20273;-84
2022/01/04 06:08:54;;;;;;;2.13;1.67;;;8.00;99.90;;;;;;5113087;27;20256;-84
2022/01/04 06:11:44;;;;;;;2.22;1.80;;;8.00;99.90;;;;;;5112759;28;20225;-84
2022/01/04 06:16:58;;;;;;;1.80;1.55;;;8.00;99.90;;;;;;5112775;28;20283;-86
2022/01/04 06:19:27;;;;;;;1.58;1.42;;;8.00;99.90;;;;;;5112469;28;20207;-85
2022/01/04 06:21:57;;;;;;;2.42;2.10;;;8.00;99.90;;;;;;5112804;28;20234;-84
2022/01/04 06:24:26;;;;;;;1.67;1.58;;;8.10;99.90;;;;;;5113300;28;20229;-84
2022/01/04 06:26:54;;;;;;;2.47;1.52;;;8.10;99.90;;;;;;5112862;28;20324;-84
2022/01/04 06:29:23;;;;;;;2.90;1.60;;;8.10;99.90;;;;;;5112571;27;20215;-84
2022/01/04 06:31:51;;;;;;;2.17;1.75;;;8.10;99.90;;;;;;5113308;28;20227;-84
2022/01/04 06:34:20;;;;;;;1.95;1.60;;;8.10;99.90;;;;;;5113088;28;20261;-84
2022/01/04 06:36:48;;;;;;;1.50;1.40;;;8.10;99.90;;;;;;5112679;28;20239;-84
2022/01/04 06:39:18;;;;;;;2.95;1.67;;;8.00;99.90;;;;;;5112521;28;20199;-84
2022/01/04 06:41:47;;;;;;;1.85;1.75;;;8.00;99.90;;;;;;5112886;28;20311;-84
2022/01/04 06:44:15;;;;;;;2.00;1.60;;;8.00;99.90;;;;;;5112642;28;20242;-84
2022/01/04 06:46:45;;;;;;;1.60;1.50;;;8.00;99.90;;;;;;5115104;28;20314;-84
2022/01/04 06:49:14;;;;;;;1.92;1.52;;;7.90;99.90;;;;;;5116447;28;20214;-84
2022/01/04 06:51:44;;;;;;;2.03;1.90;;;7.90;99.90;;;;;;5117097;27;20286;-84
2022/01/04 06:54:16;;;;;;;1.70;1.60;;;7.90;99.90;;;;;;5117196;27;20200;-84
2022/01/04 06:56:47;;;;;;;1.80;1.70;;;7.90;99.90;;;;;;5116698;27;20219;-86
2022/01/04 06:59:16;;;;;;;1.85;1.73;;;7.90;99.90;;;;;;5116100;27;20199;-86
2022/01/04 07:01:46;;;;;;;1.90;1.80;;;7.80;99.90;;;;;;5116887;27;20303;-86
2022/01/04 07:04:15;;;;;;;2.00;1.85;;;7.80;99.90;;;;;;5117395;28;20207;-85
2022/01/04 07:06:44;;;;;;;2.45;2.10;;;7.70;99.90;;;;;;5116689;28;20291;-86
2022/01/04 07:09:12;;;;;;;2.08;1.88;;;7.70;99.90;;;;;;5116148;27;20286;-85
2022/01/04 07:11:41;;;;;;;2.92;1.98;;;7.70;99.90;;;;;;5116395;28;20261;-85
2022/01/04 07:14:10;;;;;;;1.80;1.70;;;7.70;99.90;;;;;;5116427;27;20299;-85
2022/01/04 07:16:38;;;;;;;2.70;2.05;;;7.50;99.90;;;;;;5116737;28;20223;-84
2022/01/04 07:19:07;;;;;;;3.75;2.13;;;7.40;99.90;;;;;;5115990;28;20207;-85
2022/01/04 07:21:36;;;;;;;2.92;2.00;;;7.40;99.90;;;;;;5115892;27;20223;-85
2022/01/04 07:24:07;;;;;;;2.97;2.30;;;7.40;99.90;;;;;;5109598;27;20206;-86
2022/01/04 07:26:35;;;;;;;1.80;1.70;;;7.40;99.90;;;;;;5115818;27;20247;-86
2022/01/04 07:29:03;;;;;;;2.05;1.95;;;7.40;99.90;;;;;;5125043;27;20226;-86
2022/01/04 07:31:34;;;;;;;1.60;1.50;;;7.50;99.90;;;;;;5119034;27;20191;-86
2022/01/04 07:34:02;;;;;;;2.40;2.20;;;7.50;99.90;;;;;;5121327;27;20197;-86
2022/01/04 07:36:31;;;;;;;3.08;2.22;;;7.50;99.90;;;;;;5137295;27;20249;-85
2022/01/04 07:39:00;;;;;;;2.15;1.95;;;7.50;99.90;;;;;;5110109;27;20204;-93
2022/01/04 07:41:29;;;;;;;2.10;1.90;;;7.40;99.90;;;;;;5113370;28;20246;-87
2022/01/04 07:43:58;;;;;;;2.97;2.25;;;7.50;99.90;;;;;;5116579;27;20204;-87
2022/01/04 07:46:27;;;;;;;2.30;2.10;;;7.50;99.90;;;;;;5108115;28;20220;-87
2022/01/04 07:48:57;;;;;;;3.55;2.33;;;7.50;99.90;;;;;;5105421;27;20239;-87
2022/01/04 07:51:25;;;;;;;2.13;1.95;;;7.50;99.90;;;;;;5127552;27;20188;-87
2022/01/04 07:53:53;;;;;;;6.57;2.80;;;7.50;99.90;;;;;;5118884;27;20227;-87
2022/01/04 07:56:22;;;;;;;5.05;2.53;;;7.50;99.90;;;;;;5105178;28;20232;-87
2022/01/04 07:58:51;;;;;;;4.90;3.22;;;7.50;99.90;;;;;;5115686;27;20208;-87
2022/01/04 08:01:20;;;;;;;2.97;2.70;;;7.60;99.90;;;;;;5100851;28;20216;-87
2022/01/04 08:03:48;;;;;;;3.55;2.60;;;7.60;99.90;;;;;;5095698;28;20200;-87
2022/01/04 08:06:18;;;;;;;3.05;2.80;;;7.60;99.90;;;;;;5095673;28;20232;-87
2022/01/04 08:08:47;;;;;;;2.78;2.58;;;7.60;99.90;;;;;;5094831;28;20250;-87
2022/01/04 08:11:18;;;;;;;3.00;2.75;;;7.60;99.90;;;;;;5095958;28;20200;-87
2022/01/04 08:13:47;;;;;;;3.53;2.95;;;7.60;99.90;;;;;;5111189;28;20204;-87
2022/01/04 08:16:16;;;;;;;7.13;2.85;;;7.70;99.90;;;;;;5109263;28;20240;-87
2022/01/04 08:18:44;;;;;;;5.65;3.20;;;7.70;99.90;;;;;;5115126;28;20243;-87
2022/01/04 08:21:34;;;;;;;3.15;2.88;;;7.70;99.90;;;;;;5114634;27;20216;-87
2022/01/04 08:24:03;;;;;;;4.25;3.50;;;7.80;99.90;;;;;;5098912;28;20216;-87
2022/01/04 08:26:33;;;;;;;8.38;3.50;;;7.90;99.90;;;;;;5113029;28;20216;-87
2022/01/04 08:29:02;;;;;;;4.15;3.63;;;7.90;99.90;;;;;;5106075;28;20212;-87
2022/01/04 08:31:30;;;;;;;3.53;3.10;;;8.00;99.90;;;;;;5115526;27;20215;-87
2022/01/04 08:33:59;;;;;;;3.13;2.60;;;8.00;99.90;;;;;;5117924;27;20207;-87
2022/01/04 08:36:28;;;;;;;2.90;2.70;;;8.00;99.90;;;;;;5106076;27;20438;-88
2022/01/04 08:38:59;;;;;;;3.10;2.80;;;8.00;99.90;;;;;;5105789;28;20231;-88
2022/01/04 08:41:28;;;;;;;3.65;2.78;;;8.00;99.90;;;;;;5104831;28;20216;-88
2022/01/04 08:43:56;;;;;;;3.58;3.28;;;8.10;99.90;;;;;;5095074;28;20209;-88
2022/01/04 08:46:26;;;;;;;2.92;2.50;;;8.10;99.90;;;;;;5112940;27;20212;-88
2022/01/04 08:48:56;;;;;;;3.63;3.03;;;8.10;99.90;;;;;;5104751;28;20200;-88
2022/01/04 08:51:24;;;;;;;4.13;3.63;;;8.20;99.90;;;;;;5099842;28;20226;-88
2022/01/04 08:53:53;;;;;;;3.40;3.08;;;8.20;99.90;;;;;;5095832;28;20208;-88
2022/01/04 08:56:23;;;;;;;3.33;2.95;;;8.10;99.90;;;;;;5114447;28;20276;-88
2022/01/04 08:58:51;;;;;;;4.03;2.60;;;8.20;99.90;;;;;;5114339;27;20247;-88
2022/01/04 09:01:20;;;;;;;3.85;3.10;;;8.10;99.90;;;;;;5107130;28;20304;-88
2022/01/04 09:03:48;;;;;;;3.13;2.83;;;8.10;99.90;;;;;;5106595;28;20292;-88
2022/01/04 09:06:19;;;;;;;3.30;2.80;;;8.20;99.90;;;;;;5094863;28;20228;-87
2022/01/04 09:08:48;;;;;;;7.10;3.03;;;8.20;99.90;;;;;;5103126;28;20228;-87
2022/01/04 09:11:42;;;;;;;3.42;2.83;;;8.20;99.90;;;;;;5114225;27;20287;-85
2022/01/04 09:14:23;;;;;;;3.55;3.25;;;8.20;99.90;;;;;;5115234;28;20242;-85
2022/01/04 09:19:50;;;;;;;5.68;3.15;;;8.30;99.90;;;;;;5101664;28;20188;-85
2022/01/04 09:22:18;;;;;;;3.50;2.85;;;8.30;99.90;;;;;;5113019;27;20219;-85
2022/01/04 09:25:05;;;;;;;4.03;3.63;;;8.30;99.90;;;;;;5109767;28;20219;-85
2022/01/04 09:27:46;;;;;;;3.97;3.53;;;8.40;99.90;;;;;;5114509;27;20267;-84
2022/01/04 09:30:14;;;;;;;3.47;3.17;;;8.40;99.90;;;;;;5113938;27;20234;-85
2022/01/04 09:32:53;;;;;;;3.70;3.42;;;8.40;99.90;;;;;;5114022;28;20192;-85
2022/01/04 09:35:22;;;;;;;4.68;4.07;;;8.50;99.90;;;;;;5100988;28;20247;-85
2022/01/04 09:37:51;;;;;;;5.50;3.97;;;8.50;99.90;;;;;;5102395;28;20199;-85
2022/01/04 09:40:20;;;;;;;11.00;4.35;;;8.60;99.90;;;;;;5099195;28;20196;-85
2022/01/04 09:42:50;;;;;;;4.68;4.28;;;8.60;99.90;;;;;;5114485;28;20226;-85
2022/01/04 09:45:18;;;;;;;4.68;4.25;;;8.70;99.90;;;;;;5107066;28;20209;-85
2022/01/04 09:47:53;;;;;;;5.38;3.97;;;8.80;99.90;;;;;;5100375;28;20446;-85
2022/01/04 09:50:22;;;;;;;4.53;4.13;;;8.80;99.90;;;;;;5095202;28;20243;-85
2022/01/04 09:52:51;;;;;;;4.05;3.45;;;8.90;99.90;;;;;;5098840;28;20258;-85
2022/01/04 09:55:19;;;;;;;5.57;4.70;;;8.90;99.90;;;;;;5093892;28;20247;-85
2022/01/04 09:57:49;;;;;;;9.27;4.03;;;8.90;99.90;;;;;;5104688;28;20224;-86
2022/01/04 10:00:19;;;;;;;4.95;4.45;;;9.00;99.90;;;;;;5112238;27;20192;-86
2022/01/04 10:02:51;;;;;;;4.22;3.78;;;9.10;99.90;;;;;;5102082;27;20216;-85
2022/01/04 10:05:22;;;;;;;5.70;4.65;;;9.10;99.90;;;;;;5094980;28;20216;-84
2022/01/04 10:08:01;;;;;;;5.15;4.20;;;9.10;99.90;;;;;;5113694;28;20195;-84
2022/01/04 10:11:06;;;;;;;7.50;5.05;;;9.20;99.90;;;;;;5103576;28;20231;-85
2022/01/04 10:13:41;;;;;;;5.07;4.13;;;9.20;99.90;;;;;;5100678;28;20207;-85
2022/01/04 10:16:16;;;;;;;5.03;4.53;;;9.20;99.90;;;;;;5107925;28;20212;-84
2022/01/04 10:18:48;;;;;;;7.03;5.30;;;9.20;99.90;;;;;;5107395;28;20188;-85
2022/01/04 10:21:17;;;;;;;6.43;5.82;;;9.20;99.90;;;;;;5093172;28;20196;-85
2022/01/04 10:23:56;;;;;;;7.22;5.93;;;9.10;99.90;;;;;;5111826;28;20235;-85
2022/01/04 10:26:37;;;;;;;6.82;6.15;;;9.10;99.90;;;;;;5113217;28;20220;-84
2022/01/04 10:29:23;;;;;;;9.20;6.43;;;9.20;99.90;;;;;;5112540;27;20211;-85
2022/01/04 10:32:13;;;;;;;8.02;7.20;;;9.30;99.90;;;;;;5095440;28;20188;-85
2022/01/04 10:34:47;;;;;;;7.22;6.53;;;9.40;99.90;;;;;;5101828;27;20210;-85
2022/01/04 10:37:36;;;;;;;10.40;7.32;;;9.40;99.90;;;;;;5113657;28;20247;-85
2022/01/04 10:40:06;;;;;;;9.07;7.82;;;9.40;99.90;;;;;;5107724;28;20192;-85
2022/01/04 10:42:34;;;;;;;8.48;7.68;;;9.30;99.90;;;;;;5103007;28;20204;-85
2022/01/04 10:45:26;;;;;;;9.50;8.50;;;9.20;99.90;;;;;;5113619;28;20230;-85
2022/01/04 10:48:18;;;;;;;12.73;8.38;;;9.10;99.90;;;;;;5106911;28;20195;-85
2022/01/04 10:50:48;;;;;;;10.68;9.52;;;9.00;99.90;;;;;;5098484;28;20204;-84
2022/01/04 10:53:22;;;;;;;10.75;8.63;;;8.90;99.90;;;;;;5110181;28;20192;-85
2022/01/04 10:55:54;;;;;;;12.93;9.23;;;8.90;99.90;;;;;;5111370;28;20243;-86
2022/01/04 10:58:27;;;;;;;11.88;8.98;;;8.90;99.90;;;;;;5112023;28;20261;-85
2022/01/04 11:00:58;;;;;;;10.45;8.82;;;8.90;99.90;;;;;;5093125;28;20196;-86
2022/01/04 11:03:29;;;;;;;16.20;9.85;;;8.90;99.90;;;;;;5093175;28;20220;-86
2022/01/04 11:06:04;;;;;;;10.63;9.63;;;8.90;99.90;;;;;;5093407;28;20234;-88
2022/01/04 11:08:32;;;;;;;11.88;10.63;;;8.90;99.90;;;;;;5104822;28;20226;-85
2022/01/04 11:11:00;;;;;;;9.75;8.82;;;8.90;99.90;;;;;;5112846;27;20267;-85
2022/01/04 11:13:29;;;;;;;20.20;10.95;;;8.90;99.90;;;;;;5106389;28;20192;-84
2022/01/04 11:16:00;;;;;;;10.40;8.82;;;8.90;99.90;;;;;;5110446;28;20268;-85
2022/01/04 11:18:30;;;;;;;15.90;10.70;;;8.90;99.90;;;;;;5097750;28;20204;-85
2022/01/04 11:20:59;;;;;;;11.98;9.52;;;8.80;99.90;;;;;;5106061;28;20231;-85
2022/01/04 11:23:29;;;;;;;16.55;10.98;;;8.80;99.90;;;;;;5092798;28;20498;-85
2022/01/04 11:26:26;;;;;;;12.18;10.65;;;8.80;99.90;;;;;;5092478;28;20220;-85
2022/01/04 11:28:56;;;;;;;9.50;8.60;;;8.80;99.90;;;;;;5112140;28;20215;-85
2022/01/04 11:31:44;;;;;;;24.52;10.05;;;8.80;99.90;;;;;;5102719;27;20221;-84
2022/01/04 11:34:18;;;;;;;9.45;8.52;;;8.80;99.90;;;;;;5095737;28;20196;-84
2022/01/04 11:36:50;;;;;;;9.35;8.43;;;8.90;99.90;;;;;;5115769;28;20267;-84
2022/01/04 11:39:43;;;;;;;11.80;9.25;;;8.90;99.90;;;;;;5101003;28;20212;-83
2022/01/04 11:42:13;;;;;;;10.90;9.48;;;9.00;99.90;;;;;;5089556;28;20283;-83
2022/01/04 11:44:47;;;;;;;10.27;9.20;;;9.10;99.90;;;;;;5102672;28;20196;-83
2022/01/04 11:47:26;;;;;;;11.20;9.82;;;9.20;99.90;;;;;;5095379;28;20285;-83
2022/01/04 11:50:11;;;;;;;11.15;9.93;;;9.20;99.90;;;;;;5094715;28;20235;-83
2022/01/04 11:52:41;;;;;;;10.82;8.75;;;9.20;99.90;;;;;;5094977;28;20228;-82
2022/01/04 11:55:22;;;;;;;9.65;8.65;;;9.20;99.90;;;;;;5095359;28;20306;-82
2022/01/04 11:57:52;;;;;;;10.00;8.85;;;9.10;99.90;;;;;;5094942;28;20208;-82
2022/01/04 12:00:29;;;;;;;11.60;9.55;;;9.00;99.90;;;;;;5094491;28;20240;-82
2022/01/04 12:03:10;;;;;;;9.60;8.63;;;8.90;99.90;;;;;;5094617;28;20265;-82
2022/01/04 12:05:39;;;;;;;11.10;8.55;;;8.80;99.90;;;;;;5095033;28;20318;-82
2022/01/04 12:08:19;;;;;;;10.75;9.27;;;8.70;99.90;;;;;;5094983;28;20212;-82
2022/01/04 12:10:51;;;;;;;11.00;9.82;;;8.60;99.90;;;;;;5094188;28;20314;-82
2022/01/04 12:13:20;;;;;;;11.52;9.07;;;8.50;99.90;;;;;;5094472;28;20219;-82
2022/01/04 12:16:04;;;;;;;12.43;10.23;;;8.50;99.90;;;;;;5094885;28;20239;-82
2022/01/04 12:19:04;;;;;;;10.88;9.48;;;8.40;99.90;;;;;;5094140;28;20238;-82
2022/01/04 12:21:35;;;;;;;10.93;9.80;;;8.40;99.90;;;;;;5094954;28;20224;-82
2022/01/04 12:24:05;;;;;;;11.15;9.45;;;8.40;99.90;;;;;;5094419;28;20282;-82
2022/01/04 12:26:35;;;;;;;13.93;9.65;;;8.40;99.90;;;;;;5094400;28;20228;-82
2022/01/04 12:29:20;;;;;;;10.18;9.13;;;8.40;99.90;;;;;;5093982;28;20257;-82
2022/01/04 12:31:50;;;;;;;12.18;9.05;;;8.50;99.90;;;;;;5093015;28;20279;-82
2022/01/04 12:34:41;;;;;;;9.68;8.70;;;8.50;99.90;;;;;;5097861;28;20219;-83
2022/01/04 12:37:18;;;;;;;11.27;8.68;;;8.60;99.90;;;;;;5095600;28;20269;-85
2022/01/04 12:39:49;;;;;;;8.95;8.02;;;8.60;99.90;;;;;;5096728;28;20195;-84
2022/01/04 12:42:18;;;;;;;11.63;7.95;;;8.70;99.90;;;;;;5094095;28;20203;-87
2022/01/04 12:44:52;;;;;;;8.45;6.85;;;8.70;99.90;;;;;;5094852;28;20220;-86
2022/01/04 12:47:21;;;;;;;8.38;6.90;;;8.80;99.90;;;;;;5094673;28;20204;-86
2022/01/04 12:49:51;;;;;;;11.00;7.82;;;8.80;99.90;;;;;;5094692;28;20276;-86
2022/01/04 12:52:21;;;;;;;9.40;6.78;;;8.90;99.90;;;;;;5094779;28;20204;-85
2022/01/04 12:54:50;;;;;;;8.57;7.30;;;9.00;99.90;;;;;;5094872;28;20205;-86
2022/01/04 12:57:20;;;;;;;8.10;7.40;;;9.00;99.90;;;;;;5093509;28;20243;-86
2022/01/04 12:59:49;;;;;;;12.63;7.38;;;9.10;99.90;;;;;;5093912;28;20196;-86
2022/01/04 13:02:21;;;;;;;7.18;6.47;;;9.10;99.90;;;;;;5094937;28;20268;-86
2022/01/04 13:04:56;;;;;;;7.50;6.35;;;9.20;99.90;;;;;;5094245;28;20277;-84
2022/01/04 13:07:28;;;;;;;6.75;6.15;;;9.30;99.90;;;;;;5094269;28;20261;-84
2022/01/04 13:10:02;;;;;;;10.43;7.00;;;9.40;99.90;;;;;;5098387;28;20238;-85
2022/01/04 13:12:33;;;;;;;7.57;6.28;;;9.40;99.90;;;;;;5094635;28;20200;-86
2022/01/04 13:15:04;;;;;;;7.28;6.57;;;9.40;99.90;;;;;;5094943;28;20207;-85
2022/01/04 13:17:43;;;;;;;6.68;6.07;;;9.50;99.90;;;;;;5095709;28;20197;-90
2022/01/04 13:20:14;;;;;;;7.18;6.13;;;9.50;99.90;;;;;;5098507;28;20219;-84
2022/01/04 13:22:43;;;;;;;6.75;6.15;;;9.50;99.90;;;;;;5101569;28;20284;-84